sensor_id;sensor_type;location;lat;lon;timestamp;P1;durP1;ratioP1;P2;durP2;ratioP2
76336;SDS011;65157;50.082;18.178;2023-09-30T00:01:28;14.20;;;9.10;;
76336;SDS011;65157;50.082;18.178;2023-09-30T00:06:21;12.30;;;9.20;;
76336;SDS011;65157;50.082;18.178;2023-09-30T00:08:48;10.70;;;7.90;;
76336;SDS011;65157;50.082;18.178;2023-09-30T00:11:17;13.50;;;10.40;;
76336;SDS011;65157;50.082;18.178;2023-09-30T00:13:43;12.10;;;9.30;;
76336;SDS011;65157;50.082;18.178;2023-09-30T00:16:10;10.60;;;8.90;;
76336;SDS011;65157;50.082;18.178;2023-09-30T00:18:37;12.30;;;8.80;;
76336;SDS011;65157;50.082;18.178;2023-09-30T00:21:03;13.00;;;9.20;;
76336;SDS011;65157;50.082;18.178;2023-09-30T00:23:30;11.20;;;7.90;;
76336;SDS011;65157;50.082;18.178;2023-09-30T00:25:56;13.30;;;9.60;;
76336;SDS011;65157;50.082;18.178;2023-09-30T00:30:50;11.80;;;8.60;;
76336;SDS011;65157;50.082;18.178;2023-09-30T00:33:16;12.20;;;9.70;;
76336;SDS011;65157;50.082;18.178;2023-09-30T00:35:44;11.00;;;9.40;;
76336;SDS011;65157;50.082;18.178;2023-09-30T00:38:10;12.50;;;9.40;;
76336;SDS011;65157;50.082;18.178;2023-09-30T00:40:37;13.50;;;9.00;;
76336;SDS011;65157;50.082;18.178;2023-09-30T00:45:30;11.70;;;8.50;;
76336;SDS011;65157;50.082;18.178;2023-09-30T00:47:57;11.70;;;8.00;;
76336;SDS011;65157;50.082;18.178;2023-09-30T00:52:51;10.70;;;8.40;;
76336;SDS011;65157;50.082;18.178;2023-09-30T00:55:18;12.50;;;9.50;;
76336;SDS011;65157;50.082;18.178;2023-09-30T00:57:46;10.20;;;9.00;;
76336;SDS011;65157;50.082;18.178;2023-09-30T01:02:39;11.00;;;8.90;;
76336;SDS011;65157;50.082;18.178;2023-09-30T01:05:07;11.70;;;9.20;;
76336;SDS011;65157;50.082;18.178;2023-09-30T01:07:34;11.80;;;8.40;;
76336;SDS011;65157;50.082;18.178;2023-09-30T01:12:28;11.70;;;8.20;;
76336;SDS011;65157;50.082;18.178;2023-09-30T01:14:58;15.70;;;9.90;;
76336;SDS011;65157;50.082;18.178;2023-09-30T01:17:25;11.30;;;8.80;;
76336;SDS011;65157;50.082;18.178;2023-09-30T01:19:52;11.20;;;8.90;;
76336;SDS011;65157;50.082;18.178;2023-09-30T01:22:18;11.00;;;7.60;;
76336;SDS011;65157;50.082;18.178;2023-09-30T01:24:45;16.60;;;11.20;;
76336;SDS011;65157;50.082;18.178;2023-09-30T01:27:12;12.90;;;8.10;;
76336;SDS011;65157;50.082;18.178;2023-09-30T01:32:06;11.60;;;7.80;;
76336;SDS011;65157;50.082;18.178;2023-09-30T01:34:33;11.80;;;9.10;;
76336;SDS011;65157;50.082;18.178;2023-09-30T01:36:59;11.80;;;8.50;;
76336;SDS011;65157;50.082;18.178;2023-09-30T01:41:53;10.50;;;8.70;;
76336;SDS011;65157;50.082;18.178;2023-09-30T01:44:19;10.10;;;8.30;;
76336;SDS011;65157;50.082;18.178;2023-09-30T01:46:46;13.70;;;8.50;;
76336;SDS011;65157;50.082;18.178;2023-09-30T01:51:40;10.10;;;6.70;;
76336;SDS011;65157;50.082;18.178;2023-09-30T01:54:06;12.10;;;8.10;;
76336;SDS011;65157;50.082;18.178;2023-09-30T01:56:33;10.70;;;8.20;;
76336;SDS011;65157;50.082;18.178;2023-09-30T01:59:00;10.50;;;8.50;;
76336;SDS011;65157;50.082;18.178;2023-09-30T02:01:26;10.00;;;8.10;;
76336;SDS011;65157;50.082;18.178;2023-09-30T02:03:53;9.70;;;7.30;;
76336;SDS011;65157;50.082;18.178;2023-09-30T02:06:20;13.20;;;7.60;;
76336;SDS011;65157;50.082;18.178;2023-09-30T02:08:46;11.10;;;7.60;;
76336;SDS011;65157;50.082;18.178;2023-09-30T02:11:13;9.70;;;8.10;;
76336;SDS011;65157;50.082;18.178;2023-09-30T02:13:40;10.10;;;8.00;;
76336;SDS011;65157;50.082;18.178;2023-09-30T02:16:11;10.40;;;8.20;;
76336;SDS011;65157;50.082;18.178;2023-09-30T02:18:42;10.10;;;8.70;;
76336;SDS011;65157;50.082;18.178;2023-09-30T02:21:09;10.30;;;7.90;;
76336;SDS011;65157;50.082;18.178;2023-09-30T02:23:36;9.10;;;7.70;;
76336;SDS011;65157;50.082;18.178;2023-09-30T02:26:03;9.60;;;8.10;;
76336;SDS011;65157;50.082;18.178;2023-09-30T02:30:56;11.30;;;7.40;;
76336;SDS011;65157;50.082;18.178;2023-09-30T02:33:22;9.70;;;8.10;;
76336;SDS011;65157;50.082;18.178;2023-09-30T02:35:50;9.00;;;7.60;;
76336;SDS011;65157;50.082;18.178;2023-09-30T02:38:17;11.00;;;7.30;;
76336;SDS011;65157;50.082;18.178;2023-09-30T02:40:44;9.80;;;6.80;;
76336;SDS011;65157;50.082;18.178;2023-09-30T02:43:11;12.30;;;8.50;;
76336;SDS011;65157;50.082;18.178;2023-09-30T02:45:37;10.30;;;8.00;;
76336;SDS011;65157;50.082;18.178;2023-09-30T02:48:04;10.70;;;7.90;;
76336;SDS011;65157;50.082;18.178;2023-09-30T02:50:31;11.20;;;7.50;;
76336;SDS011;65157;50.082;18.178;2023-09-30T02:52:57;9.10;;;7.10;;
76336;SDS011;65157;50.082;18.178;2023-09-30T02:57:50;9.50;;;7.40;;
76336;SDS011;65157;50.082;18.178;2023-09-30T03:00:17;13.30;;;8.40;;
76336;SDS011;65157;50.082;18.178;2023-09-30T03:02:43;10.80;;;8.20;;
76336;SDS011;65157;50.082;18.178;2023-09-30T03:05:10;8.20;;;7.20;;
76336;SDS011;65157;50.082;18.178;2023-09-30T03:10:03;13.80;;;7.80;;
76336;SDS011;65157;50.082;18.178;2023-09-30T03:12:30;8.70;;;7.20;;
76336;SDS011;65157;50.082;18.178;2023-09-30T03:14:57;9.30;;;7.40;;
76336;SDS011;65157;50.082;18.178;2023-09-30T03:17:23;8.40;;;7.20;;
76336;SDS011;65157;50.082;18.178;2023-09-30T03:19:51;9.50;;;7.10;;
76336;SDS011;65157;50.082;18.178;2023-09-30T03:22:17;11.60;;;7.70;;
76336;SDS011;65157;50.082;18.178;2023-09-30T03:24:44;9.70;;;7.80;;
76336;SDS011;65157;50.082;18.178;2023-09-30T03:27:11;10.20;;;7.70;;
76336;SDS011;65157;50.082;18.178;2023-09-30T03:29:37;12.10;;;8.50;;
76336;SDS011;65157;50.082;18.178;2023-09-30T03:32:05;9.60;;;7.40;;
76336;SDS011;65157;50.082;18.178;2023-09-30T03:36:58;9.90;;;7.60;;
76336;SDS011;65157;50.082;18.178;2023-09-30T03:39:25;14.00;;;8.00;;
76336;SDS011;65157;50.082;18.178;2023-09-30T03:41:53;11.40;;;9.70;;
76336;SDS011;65157;50.082;18.178;2023-09-30T03:44:21;11.70;;;7.80;;
76336;SDS011;65157;50.082;18.178;2023-09-30T03:46:50;9.60;;;7.20;;
76336;SDS011;65157;50.082;18.178;2023-09-30T03:49:19;8.40;;;7.50;;
76336;SDS011;65157;50.082;18.178;2023-09-30T03:51:46;10.00;;;7.80;;
76336;SDS011;65157;50.082;18.178;2023-09-30T03:54:13;11.50;;;8.20;;
76336;SDS011;65157;50.082;18.178;2023-09-30T03:56:39;9.10;;;7.50;;
76336;SDS011;65157;50.082;18.178;2023-09-30T03:59:06;13.20;;;7.30;;
76336;SDS011;65157;50.082;18.178;2023-09-30T04:01:33;11.50;;;8.00;;
76336;SDS011;65157;50.082;18.178;2023-09-30T04:06:26;10.20;;;8.50;;
76336;SDS011;65157;50.082;18.178;2023-09-30T04:08:53;8.80;;;7.90;;
76336;SDS011;65157;50.082;18.178;2023-09-30T04:11:19;12.40;;;8.20;;
76336;SDS011;65157;50.082;18.178;2023-09-30T04:16:12;10.40;;;8.10;;
76336;SDS011;65157;50.082;18.178;2023-09-30T04:18:39;10.30;;;8.00;;
76336;SDS011;65157;50.082;18.178;2023-09-30T04:21:06;12.20;;;7.90;;
76336;SDS011;65157;50.082;18.178;2023-09-30T04:23:33;13.20;;;8.60;;
76336;SDS011;65157;50.082;18.178;2023-09-30T04:25:59;10.10;;;8.00;;
76336;SDS011;65157;50.082;18.178;2023-09-30T04:28:26;9.90;;;7.10;;
76336;SDS011;65157;50.082;18.178;2023-09-30T04:30:52;8.80;;;7.20;;
76336;SDS011;65157;50.082;18.178;2023-09-30T04:33:19;10.00;;;9.10;;
76336;SDS011;65157;50.082;18.178;2023-09-30T04:35:46;10.70;;;8.60;;
76336;SDS011;65157;50.082;18.178;2023-09-30T04:40:40;8.00;;;7.20;;
76336;SDS011;65157;50.082;18.178;2023-09-30T04:43:07;10.10;;;8.90;;
76336;SDS011;65157;50.082;18.178;2023-09-30T04:45:33;11.20;;;8.60;;
76336;SDS011;65157;50.082;18.178;2023-09-30T04:48:00;11.40;;;9.90;;
76336;SDS011;65157;50.082;18.178;2023-09-30T04:50:27;8.60;;;7.80;;
76336;SDS011;65157;50.082;18.178;2023-09-30T04:52:53;9.00;;;7.50;;
76336;SDS011;65157;50.082;18.178;2023-09-30T04:55:20;11.40;;;9.00;;
76336;SDS011;65157;50.082;18.178;2023-09-30T05:00:18;11.40;;;7.40;;
76336;SDS011;65157;50.082;18.178;2023-09-30T05:02:46;9.30;;;6.80;;
76336;SDS011;65157;50.082;18.178;2023-09-30T05:05:13;11.20;;;7.60;;
76336;SDS011;65157;50.082;18.178;2023-09-30T05:07:40;9.40;;;8.20;;
76336;SDS011;65157;50.082;18.178;2023-09-30T05:10:07;12.60;;;8.10;;
76336;SDS011;65157;50.082;18.178;2023-09-30T05:12:34;11.60;;;9.60;;
76336;SDS011;65157;50.082;18.178;2023-09-30T05:17:27;9.80;;;8.80;;
76336;SDS011;65157;50.082;18.178;2023-09-30T05:19:58;9.40;;;8.00;;
76336;SDS011;65157;50.082;18.178;2023-09-30T05:22:25;10.30;;;8.00;;
76336;SDS011;65157;50.082;18.178;2023-09-30T05:24:52;8.30;;;7.40;;
76336;SDS011;65157;50.082;18.178;2023-09-30T05:27:19;8.70;;;7.80;;
76336;SDS011;65157;50.082;18.178;2023-09-30T05:29:48;9.60;;;8.10;;
76336;SDS011;65157;50.082;18.178;2023-09-30T05:32:15;10.10;;;8.40;;
76336;SDS011;65157;50.082;18.178;2023-09-30T05:37:08;9.60;;;8.30;;
76336;SDS011;65157;50.082;18.178;2023-09-30T05:39:36;11.00;;;8.00;;
76336;SDS011;65157;50.082;18.178;2023-09-30T05:42:03;9.40;;;7.70;;
76336;SDS011;65157;50.082;18.178;2023-09-30T05:44:30;9.50;;;8.30;;
76336;SDS011;65157;50.082;18.178;2023-09-30T05:46:56;10.40;;;7.50;;
76336;SDS011;65157;50.082;18.178;2023-09-30T05:49:23;10.20;;;8.10;;
76336;SDS011;65157;50.082;18.178;2023-09-30T05:51:49;12.00;;;8.70;;
76336;SDS011;65157;50.082;18.178;2023-09-30T05:54:16;9.50;;;8.20;;
76336;SDS011;65157;50.082;18.178;2023-09-30T05:56:43;9.10;;;8.20;;
76336;SDS011;65157;50.082;18.178;2023-09-30T05:59:09;9.30;;;7.90;;
76336;SDS011;65157;50.082;18.178;2023-09-30T06:01:36;10.20;;;8.30;;
76336;SDS011;65157;50.082;18.178;2023-09-30T06:04:03;8.90;;;7.40;;
76336;SDS011;65157;50.082;18.178;2023-09-30T06:06:30;10.00;;;9.00;;
76336;SDS011;65157;50.082;18.178;2023-09-30T06:08:57;9.90;;;8.00;;
76336;SDS011;65157;50.082;18.178;2023-09-30T06:11:24;9.40;;;7.80;;
76336;SDS011;65157;50.082;18.178;2023-09-30T06:13:51;10.90;;;8.30;;
76336;SDS011;65157;50.082;18.178;2023-09-30T06:18:44;10.40;;;8.80;;
76336;SDS011;65157;50.082;18.178;2023-09-30T06:21:12;9.20;;;7.40;;
76336;SDS011;65157;50.082;18.178;2023-09-30T06:23:39;9.70;;;7.90;;
76336;SDS011;65157;50.082;18.178;2023-09-30T06:26:06;12.80;;;8.30;;
76336;SDS011;65157;50.082;18.178;2023-09-30T06:28:33;9.70;;;8.70;;
76336;SDS011;65157;50.082;18.178;2023-09-30T06:30:59;11.80;;;8.70;;
76336;SDS011;65157;50.082;18.178;2023-09-30T06:33:26;9.10;;;8.20;;
76336;SDS011;65157;50.082;18.178;2023-09-30T06:35:53;10.40;;;8.30;;
76336;SDS011;65157;50.082;18.178;2023-09-30T06:38:19;9.90;;;8.70;;
76336;SDS011;65157;50.082;18.178;2023-09-30T06:43:16;9.30;;;7.80;;
76336;SDS011;65157;50.082;18.178;2023-09-30T06:45:42;8.50;;;7.70;;
76336;SDS011;65157;50.082;18.178;2023-09-30T06:48:10;8.70;;;7.80;;
76336;SDS011;65157;50.082;18.178;2023-09-30T06:50:37;8.90;;;7.60;;
76336;SDS011;65157;50.082;18.178;2023-09-30T06:53:04;8.80;;;6.90;;
76336;SDS011;65157;50.082;18.178;2023-09-30T06:55:30;10.10;;;7.70;;
76336;SDS011;65157;50.082;18.178;2023-09-30T06:57:57;8.20;;;6.80;;
76336;SDS011;65157;50.082;18.178;2023-09-30T07:00:24;9.80;;;8.30;;
76336;SDS011;65157;50.082;18.178;2023-09-30T07:02:51;9.30;;;8.30;;
76336;SDS011;65157;50.082;18.178;2023-09-30T07:05:19;9.40;;;8.30;;
76336;SDS011;65157;50.082;18.178;2023-09-30T07:07:46;11.00;;;8.70;;
76336;SDS011;65157;50.082;18.178;2023-09-30T07:10:13;9.30;;;7.30;;
76336;SDS011;65157;50.082;18.178;2023-09-30T07:12:40;9.90;;;8.10;;
76336;SDS011;65157;50.082;18.178;2023-09-30T07:15:07;11.70;;;7.90;;
76336;SDS011;65157;50.082;18.178;2023-09-30T07:17:35;9.40;;;6.90;;
76336;SDS011;65157;50.082;18.178;2023-09-30T07:20:03;8.90;;;8.00;;
76336;SDS011;65157;50.082;18.178;2023-09-30T07:22:31;11.00;;;7.40;;
76336;SDS011;65157;50.082;18.178;2023-09-30T07:24:57;9.90;;;8.20;;
76336;SDS011;65157;50.082;18.178;2023-09-30T07:29:51;9.50;;;8.60;;
76336;SDS011;65157;50.082;18.178;2023-09-30T07:32:18;8.60;;;7.70;;
76336;SDS011;65157;50.082;18.178;2023-09-30T07:34:44;9.00;;;8.00;;
76336;SDS011;65157;50.082;18.178;2023-09-30T07:37:11;9.10;;;8.20;;
76336;SDS011;65157;50.082;18.178;2023-09-30T07:39:39;8.80;;;7.70;;
76336;SDS011;65157;50.082;18.178;2023-09-30T07:42:08;9.20;;;7.90;;
76336;SDS011;65157;50.082;18.178;2023-09-30T07:44:38;10.00;;;8.50;;
76336;SDS011;65157;50.082;18.178;2023-09-30T07:47:04;9.50;;;6.80;;
76336;SDS011;65157;50.082;18.178;2023-09-30T07:51:59;10.50;;;8.30;;
76336;SDS011;65157;50.082;18.178;2023-09-30T07:54:26;9.80;;;8.00;;
76336;SDS011;65157;50.082;18.178;2023-09-30T07:59:19;9.50;;;7.10;;
76336;SDS011;65157;50.082;18.178;2023-09-30T08:01:47;8.50;;;6.70;;
76336;SDS011;65157;50.082;18.178;2023-09-30T08:04:14;6.90;;;6.30;;
76336;SDS011;65157;50.082;18.178;2023-09-30T08:06:41;8.80;;;6.60;;
76336;SDS011;65157;50.082;18.178;2023-09-30T08:09:08;7.40;;;6.60;;
76336;SDS011;65157;50.082;18.178;2023-09-30T08:11:35;8.40;;;7.60;;
76336;SDS011;65157;50.082;18.178;2023-09-30T08:14:03;6.90;;;5.70;;
76336;SDS011;65157;50.082;18.178;2023-09-30T08:16:31;6.80;;;5.90;;
76336;SDS011;65157;50.082;18.178;2023-09-30T08:21:24;6.40;;;5.60;;
76336;SDS011;65157;50.082;18.178;2023-09-30T08:26:17;6.10;;;5.40;;
76336;SDS011;65157;50.082;18.178;2023-09-30T08:28:44;7.80;;;5.70;;
76336;SDS011;65157;50.082;18.178;2023-09-30T08:33:40;8.60;;;5.80;;
76336;SDS011;65157;50.082;18.178;2023-09-30T08:36:07;7.70;;;6.90;;
76336;SDS011;65157;50.082;18.178;2023-09-30T08:41:01;9.30;;;8.40;;
76336;SDS011;65157;50.082;18.178;2023-09-30T08:43:29;9.10;;;7.80;;
76336;SDS011;65157;50.082;18.178;2023-09-30T08:45:56;7.40;;;6.70;;
76336;SDS011;65157;50.082;18.178;2023-09-30T08:48:23;7.90;;;6.50;;
76336;SDS011;65157;50.082;18.178;2023-09-30T08:50:52;8.70;;;7.10;;
76336;SDS011;65157;50.082;18.178;2023-09-30T08:53:20;8.10;;;6.20;;
76336;SDS011;65157;50.082;18.178;2023-09-30T08:55:47;6.90;;;6.00;;
76336;SDS011;65157;50.082;18.178;2023-09-30T08:58:18;8.70;;;7.00;;
76336;SDS011;65157;50.082;18.178;2023-09-30T09:00:46;7.00;;;6.30;;
76336;SDS011;65157;50.082;18.178;2023-09-30T09:03:13;10.40;;;7.00;;
76336;SDS011;65157;50.082;18.178;2023-09-30T09:05:40;8.90;;;8.00;;
76336;SDS011;65157;50.082;18.178;2023-09-30T09:08:07;7.80;;;6.10;;
76336;SDS011;65157;50.082;18.178;2023-09-30T09:10:42;10.80;;;7.80;;
76336;SDS011;65157;50.082;18.178;2023-09-30T09:13:21;12.90;;;9.50;;
76336;SDS011;65157;50.082;18.178;2023-09-30T09:15:48;13.40;;;9.60;;
76336;SDS011;65157;50.082;18.178;2023-09-30T09:18:33;14.30;;;9.70;;
76336;SDS011;65157;50.082;18.178;2023-09-30T09:23:42;12.40;;;8.50;;
76336;SDS011;65157;50.082;18.178;2023-09-30T09:26:11;10.60;;;8.30;;
76336;SDS011;65157;50.082;18.178;2023-09-30T09:28:39;11.60;;;8.40;;
76336;SDS011;65157;50.082;18.178;2023-09-30T09:31:22;13.50;;;11.80;;
76336;SDS011;65157;50.082;18.178;2023-09-30T09:33:50;13.30;;;10.30;;
76336;SDS011;65157;50.082;18.178;2023-09-30T09:36:17;9.20;;;6.30;;
76336;SDS011;65157;50.082;18.178;2023-09-30T09:38:53;6.50;;;4.90;;
76336;SDS011;65157;50.082;18.178;2023-09-30T09:41:20;3.80;;;3.50;;
76336;SDS011;65157;50.082;18.178;2023-09-30T09:43:50;5.10;;;4.10;;
76336;SDS011;65157;50.082;18.178;2023-09-30T09:46:17;4.70;;;4.30;;
76336;SDS011;65157;50.082;18.178;2023-09-30T09:48:45;4.40;;;4.10;;
76336;SDS011;65157;50.082;18.178;2023-09-30T09:51:13;5.30;;;4.00;;
76336;SDS011;65157;50.082;18.178;2023-09-30T09:53:41;4.30;;;3.90;;
76336;SDS011;65157;50.082;18.178;2023-09-30T09:56:08;6.30;;;4.50;;
76336;SDS011;65157;50.082;18.178;2023-09-30T09:58:35;4.10;;;3.70;;
76336;SDS011;65157;50.082;18.178;2023-09-30T10:01:03;5.10;;;4.60;;
76336;SDS011;65157;50.082;18.178;2023-09-30T10:03:29;5.60;;;4.80;;
76336;SDS011;65157;50.082;18.178;2023-09-30T10:05:56;5.60;;;4.80;;
76336;SDS011;65157;50.082;18.178;2023-09-30T10:08:27;7.70;;;4.10;;
76336;SDS011;65157;50.082;18.178;2023-09-30T10:10:58;10.20;;;5.40;;
76336;SDS011;65157;50.082;18.178;2023-09-30T10:19:19;6.20;;;5.50;;
76336;SDS011;65157;50.082;18.178;2023-09-30T10:22:19;5.30;;;4.80;;
76336;SDS011;65157;50.082;18.178;2023-09-30T10:25:33;6.00;;;5.30;;
76336;SDS011;65157;50.082;18.178;2023-09-30T10:28:00;5.50;;;4.90;;
76336;SDS011;65157;50.082;18.178;2023-09-30T10:31:07;5.00;;;4.40;;
76336;SDS011;65157;50.082;18.178;2023-09-30T10:34:23;5.70;;;4.10;;
76336;SDS011;65157;50.082;18.178;2023-09-30T10:36:27;5.60;;;4.50;;
76336;SDS011;65157;50.082;18.178;2023-09-30T10:38:54;4.80;;;4.30;;
76336;SDS011;65157;50.082;18.178;2023-09-30T10:47:34;4.90;;;3.50;;
76336;SDS011;65157;50.082;18.178;2023-09-30T10:49:47;5.10;;;4.70;;
76336;SDS011;65157;50.082;18.178;2023-09-30T10:52:21;7.70;;;4.80;;
76336;SDS011;65157;50.082;18.178;2023-09-30T10:54:50;6.30;;;4.90;;
76336;SDS011;65157;50.082;18.178;2023-09-30T11:00:08;4.70;;;3.50;;
76336;SDS011;65157;50.082;18.178;2023-09-30T11:02:47;3.10;;;2.50;;
76336;SDS011;65157;50.082;18.178;2023-09-30T11:05:14;4.80;;;2.80;;
76336;SDS011;65157;50.082;18.178;2023-09-30T11:07:41;4.30;;;3.40;;
76336;SDS011;65157;50.082;18.178;2023-09-30T11:10:09;3.60;;;3.30;;
76336;SDS011;65157;50.082;18.178;2023-09-30T11:15:03;4.40;;;4.00;;
76336;SDS011;65157;50.082;18.178;2023-09-30T11:17:29;4.70;;;3.10;;
76336;SDS011;65157;50.082;18.178;2023-09-30T11:19:56;3.60;;;3.00;;
76336;SDS011;65157;50.082;18.178;2023-09-30T11:22:23;4.30;;;3.20;;
76336;SDS011;65157;50.082;18.178;2023-09-30T11:27:22;4.40;;;2.90;;
76336;SDS011;65157;50.082;18.178;2023-09-30T11:29:50;4.30;;;2.70;;
76336;SDS011;65157;50.082;18.178;2023-09-30T11:32:26;3.30;;;2.80;;
76336;SDS011;65157;50.082;18.178;2023-09-30T11:34:53;4.60;;;3.10;;
76336;SDS011;65157;50.082;18.178;2023-09-30T11:37:20;3.40;;;3.10;;
76336;SDS011;65157;50.082;18.178;2023-09-30T11:42:15;4.00;;;3.00;;
76336;SDS011;65157;50.082;18.178;2023-09-30T11:44:44;3.60;;;2.80;;
76336;SDS011;65157;50.082;18.178;2023-09-30T11:47:12;2.90;;;2.70;;
76336;SDS011;65157;50.082;18.178;2023-09-30T11:49:39;2.70;;;2.50;;
76336;SDS011;65157;50.082;18.178;2023-09-30T11:52:10;3.80;;;3.50;;
76336;SDS011;65157;50.082;18.178;2023-09-30T11:54:39;4.60;;;2.10;;
76336;SDS011;65157;50.082;18.178;2023-09-30T11:57:07;3.50;;;3.20;;
76336;SDS011;65157;50.082;18.178;2023-09-30T11:59:34;3.40;;;2.70;;
76336;SDS011;65157;50.082;18.178;2023-09-30T12:02:01;3.90;;;2.70;;
76336;SDS011;65157;50.082;18.178;2023-09-30T12:04:28;2.90;;;2.50;;
76336;SDS011;65157;50.082;18.178;2023-09-30T12:06:55;3.90;;;3.60;;
76336;SDS011;65157;50.082;18.178;2023-09-30T12:09:24;3.50;;;3.10;;
76336;SDS011;65157;50.082;18.178;2023-09-30T12:11:51;9.90;;;3.30;;
76336;SDS011;65157;50.082;18.178;2023-09-30T12:14:19;5.90;;;3.80;;
76336;SDS011;65157;50.082;18.178;2023-09-30T12:16:49;7.20;;;3.50;;
76336;SDS011;65157;50.082;18.178;2023-09-30T12:19:17;4.60;;;3.50;;
76336;SDS011;65157;50.082;18.178;2023-09-30T12:21:44;3.10;;;2.60;;
76336;SDS011;65157;50.082;18.178;2023-09-30T12:24:12;5.50;;;2.90;;
76336;SDS011;65157;50.082;18.178;2023-09-30T12:26:46;3.20;;;3.10;;
76336;SDS011;65157;50.082;18.178;2023-09-30T12:29:16;4.00;;;2.70;;
76336;SDS011;65157;50.082;18.178;2023-09-30T12:31:44;4.30;;;3.90;;
76336;SDS011;65157;50.082;18.178;2023-09-30T12:34:12;6.60;;;2.80;;
76336;SDS011;65157;50.082;18.178;2023-09-30T12:36:39;5.00;;;3.00;;
76336;SDS011;65157;50.082;18.178;2023-09-30T12:39:06;3.90;;;3.30;;
76336;SDS011;65157;50.082;18.178;2023-09-30T12:43:59;6.90;;;3.10;;
76336;SDS011;65157;50.082;18.178;2023-09-30T12:46:27;4.70;;;3.50;;
76336;SDS011;65157;50.082;18.178;2023-09-30T12:51:20;2.90;;;2.60;;
76336;SDS011;65157;50.082;18.178;2023-09-30T12:53:49;4.10;;;2.80;;
76336;SDS011;65157;50.082;18.178;2023-09-30T12:56:16;3.00;;;2.40;;
76336;SDS011;65157;50.082;18.178;2023-09-30T12:58:45;4.60;;;3.10;;
76336;SDS011;65157;50.082;18.178;2023-09-30T13:01:13;3.90;;;2.90;;
76336;SDS011;65157;50.082;18.178;2023-09-30T13:03:39;5.40;;;3.70;;
76336;SDS011;65157;50.082;18.178;2023-09-30T13:06:06;3.80;;;3.10;;
76336;SDS011;65157;50.082;18.178;2023-09-30T13:08:34;3.20;;;2.50;;
76336;SDS011;65157;50.082;18.178;2023-09-30T13:13:28;2.40;;;2.10;;
76336;SDS011;65157;50.082;18.178;2023-09-30T13:15:55;3.10;;;2.90;;
76336;SDS011;65157;50.082;18.178;2023-09-30T13:18:24;4.90;;;3.50;;
76336;SDS011;65157;50.082;18.178;2023-09-30T13:20:51;5.60;;;2.00;;
76336;SDS011;65157;50.082;18.178;2023-09-30T13:25:45;3.90;;;2.90;;
76336;SDS011;65157;50.082;18.178;2023-09-30T13:28:15;4.30;;;2.60;;
76336;SDS011;65157;50.082;18.178;2023-09-30T13:30:42;4.20;;;3.90;;
76336;SDS011;65157;50.082;18.178;2023-09-30T13:33:09;3.50;;;2.70;;
76336;SDS011;65157;50.082;18.178;2023-09-30T13:38:02;2.50;;;1.90;;
76336;SDS011;65157;50.082;18.178;2023-09-30T13:40:29;4.40;;;3.00;;
76336;SDS011;65157;50.082;18.178;2023-09-30T13:42:56;4.70;;;2.40;;
76336;SDS011;65157;50.082;18.178;2023-09-30T13:45:23;6.60;;;3.10;;
76336;SDS011;65157;50.082;18.178;2023-09-30T13:47:49;3.00;;;2.10;;
76336;SDS011;65157;50.082;18.178;2023-09-30T13:50:16;3.80;;;2.70;;
76336;SDS011;65157;50.082;18.178;2023-09-30T13:52:43;5.00;;;3.60;;
76336;SDS011;65157;50.082;18.178;2023-09-30T13:57:36;3.30;;;2.00;;
76336;SDS011;65157;50.082;18.178;2023-09-30T14:02:29;4.00;;;2.30;;
76336;SDS011;65157;50.082;18.178;2023-09-30T14:04:56;2.50;;;2.20;;
76336;SDS011;65157;50.082;18.178;2023-09-30T14:07:23;6.10;;;2.40;;
76336;SDS011;65157;50.082;18.178;2023-09-30T14:12:17;4.60;;;2.30;;
76336;SDS011;65157;50.082;18.178;2023-09-30T14:14:43;5.20;;;2.10;;
76336;SDS011;65157;50.082;18.178;2023-09-30T14:19:38;5.50;;;2.90;;
76336;SDS011;65157;50.082;18.178;2023-09-30T14:22:05;6.30;;;2.40;;
76336;SDS011;65157;50.082;18.178;2023-09-30T14:24:32;4.80;;;2.70;;
76336;SDS011;65157;50.082;18.178;2023-09-30T14:26:59;4.80;;;2.00;;
76336;SDS011;65157;50.082;18.178;2023-09-30T14:29:26;4.50;;;2.80;;
76336;SDS011;65157;50.082;18.178;2023-09-30T14:31:53;4.80;;;2.40;;
76336;SDS011;65157;50.082;18.178;2023-09-30T14:34:20;3.00;;;2.30;;
76336;SDS011;65157;50.082;18.178;2023-09-30T14:39:13;6.00;;;2.90;;
76336;SDS011;65157;50.082;18.178;2023-09-30T14:44:06;5.50;;;2.90;;
76336;SDS011;65157;50.082;18.178;2023-09-30T14:49:03;4.70;;;2.10;;
76336;SDS011;65157;50.082;18.178;2023-09-30T14:51:33;4.40;;;3.10;;
76336;SDS011;65157;50.082;18.178;2023-09-30T14:54:00;4.70;;;1.90;;
76336;SDS011;65157;50.082;18.178;2023-09-30T14:56:27;5.00;;;3.00;;
76336;SDS011;65157;50.082;18.178;2023-09-30T15:01:20;3.70;;;2.10;;
76336;SDS011;65157;50.082;18.178;2023-09-30T15:03:47;6.50;;;2.50;;
76336;SDS011;65157;50.082;18.178;2023-09-30T15:06:13;6.40;;;2.50;;
76336;SDS011;65157;50.082;18.178;2023-09-30T15:11:11;5.60;;;2.20;;
76336;SDS011;65157;50.082;18.178;2023-09-30T15:13:39;6.40;;;2.50;;
76336;SDS011;65157;50.082;18.178;2023-09-30T15:18:32;5.10;;;2.80;;
76336;SDS011;65157;50.082;18.178;2023-09-30T15:23:26;7.80;;;2.40;;
76336;SDS011;65157;50.082;18.178;2023-09-30T15:25:52;5.10;;;2.50;;
76336;SDS011;65157;50.082;18.178;2023-09-30T15:28:19;5.70;;;2.20;;
76336;SDS011;65157;50.082;18.178;2023-09-30T15:30:46;6.10;;;3.00;;
76336;SDS011;65157;50.082;18.178;2023-09-30T15:33:17;3.60;;;2.80;;
76336;SDS011;65157;50.082;18.178;2023-09-30T15:38:10;3.90;;;2.90;;
76336;SDS011;65157;50.082;18.178;2023-09-30T15:40:50;5.00;;;2.30;;
76336;SDS011;65157;50.082;18.178;2023-09-30T15:43:18;6.10;;;2.70;;
76336;SDS011;65157;50.082;18.178;2023-09-30T15:45:46;7.50;;;2.90;;
76336;SDS011;65157;50.082;18.178;2023-09-30T15:48:13;13.10;;;4.00;;
76336;SDS011;65157;50.082;18.178;2023-09-30T15:50:40;4.80;;;2.80;;
76336;SDS011;65157;50.082;18.178;2023-09-30T15:55:34;5.60;;;2.50;;
76336;SDS011;65157;50.082;18.178;2023-09-30T15:58:06;8.10;;;3.60;;
76336;SDS011;65157;50.082;18.178;2023-09-30T16:00:36;5.30;;;2.80;;
76336;SDS011;65157;50.082;18.178;2023-09-30T16:03:06;7.50;;;2.90;;
76336;SDS011;65157;50.082;18.178;2023-09-30T16:05:34;6.10;;;3.90;;
76336;SDS011;65157;50.082;18.178;2023-09-30T16:08:02;5.60;;;3.20;;
76336;SDS011;65157;50.082;18.178;2023-09-30T16:10:35;7.40;;;4.00;;
76336;SDS011;65157;50.082;18.178;2023-09-30T16:13:03;6.80;;;4.00;;
76336;SDS011;65157;50.082;18.178;2023-09-30T16:15:30;8.00;;;3.30;;
76336;SDS011;65157;50.082;18.178;2023-09-30T16:17:56;6.30;;;4.00;;
76336;SDS011;65157;50.082;18.178;2023-09-30T16:20:24;6.40;;;2.90;;
76336;SDS011;65157;50.082;18.178;2023-09-30T16:25:18;7.80;;;3.20;;
76336;SDS011;65157;50.082;18.178;2023-09-30T16:27:45;7.10;;;3.40;;
76336;SDS011;65157;50.082;18.178;2023-09-30T16:30:12;7.50;;;2.80;;
76336;SDS011;65157;50.082;18.178;2023-09-30T16:35:05;9.10;;;3.80;;
76336;SDS011;65157;50.082;18.178;2023-09-30T16:37:33;11.10;;;6.10;;
76336;SDS011;65157;50.082;18.178;2023-09-30T16:40:00;13.70;;;8.20;;
76336;SDS011;65157;50.082;18.178;2023-09-30T16:44:54;12.60;;;8.70;;
76336;SDS011;65157;50.082;18.178;2023-09-30T16:47:20;11.30;;;8.30;;
76336;SDS011;65157;50.082;18.178;2023-09-30T16:49:47;14.80;;;10.60;;
76336;SDS011;65157;50.082;18.178;2023-09-30T16:52:15;16.70;;;12.00;;
76336;SDS011;65157;50.082;18.178;2023-09-30T16:54:42;20.00;;;12.60;;
76336;SDS011;65157;50.082;18.178;2023-09-30T16:57:09;24.90;;;13.50;;
76336;SDS011;65157;50.082;18.178;2023-09-30T16:59:35;26.30;;;13.90;;